createdAt,value
2019-02-25T00:00:37.828Z,6
2019-02-25T00:01:37.658Z,5.8
2019-02-25T00:02:37.722Z,5.7
2019-02-25T00:03:37.657Z,5.5
2019-02-25T00:04:37.670Z,5.7
2019-02-25T00:05:37.690Z,5.8
2019-02-25T00:06:37.677Z,5.9
2019-02-25T00:07:37.655Z,6
2019-02-25T00:08:37.743Z,5.8
2019-02-25T00:09:37.679Z,5.7
2019-02-25T00:10:37.641Z,5.8
2019-02-25T00:11:37.667Z,6.1
2019-02-25T00:12:37.664Z,6.4
2019-02-25T00:13:37.713Z,6.7
2019-02-25T00:14:37.659Z,7
2019-02-25T00:15:37.648Z,7.4
2019-02-25T00:16:37.747Z,7.6
2019-02-25T00:17:37.653Z,7.7
2019-02-25T00:18:37.683Z,7.8
2019-02-25T00:19:37.667Z,7.7
2019-02-25T00:20:37.729Z,7.6
2019-02-25T00:21:37.663Z,7.5
2019-02-25T00:22:37.668Z,7.5
2019-02-25T00:23:37.680Z,7.3
2019-02-25T00:24:37.673Z,6.9
2019-02-25T00:25:37.740Z,6.6
2019-02-25T00:26:37.658Z,6.4
2019-02-25T00:27:37.649Z,6.1
2019-02-25T00:28:37.653Z,5.6
2019-02-25T00:29:37.672Z,5
2019-02-25T00:30:37.650Z,4.5
2019-02-25T00:31:37.661Z,4.1
2019-02-25T00:32:37.658Z,3.7
2019-02-25T00:33:37.706Z,3.4
2019-02-25T00:34:37.730Z,3.1
2019-02-25T00:35:37.657Z,3.1
2019-02-25T00:36:37.663Z,2.9
2019-02-25T00:37:37.684Z,2.9
2019-02-25T00:38:37.832Z,2.9
2019-02-25T00:39:37.744Z,3.1
2019-02-25T00:40:37.664Z,3.4
2019-02-25T00:41:37.747Z,3.6
2019-02-25T00:42:37.659Z,3.9
2019-02-25T00:43:37.644Z,3.9
2019-02-25T00:44:37.670Z,4.1
2019-02-25T00:45:37.741Z,4.2
2019-02-25T00:46:37.659Z,4.5
2019-02-25T00:47:37.652Z,4.9
2019-02-25T00:48:37.648Z,5.6
2019-02-25T00:49:37.836Z,6.4
2019-02-25T00:50:37.670Z,7.3
2019-02-25T00:51:37.657Z,8
2019-02-25T00:52:37.645Z,8.4
2019-02-25T00:53:37.639Z,8.6
2019-02-25T00:54:37.729Z,8.4
2019-02-25T00:55:37.646Z,8.5
2019-02-25T00:56:37.642Z,8.4
2019-02-25T00:57:37.647Z,8.5
2019-02-25T00:58:37.710Z,8.5
2019-02-25T00:59:37.625Z,8.6
2019-02-25T01:00:37.662Z,8.5
2019-02-25T01:01:37.661Z,8.6
2019-02-25T01:02:37.710Z,8.6
2019-02-25T01:03:37.635Z,8.5
2019-02-25T01:04:37.617Z,8.4
2019-02-25T01:05:37.649Z,8.5
2019-02-25T01:06:37.649Z,8.6
2019-02-25T01:07:37.723Z,8.9
2019-02-25T01:08:37.642Z,9
2019-02-25T01:09:37.632Z,9.1
2019-02-25T01:10:37.793Z,8.9
2019-02-25T01:11:37.651Z,8.6
2019-02-25T01:12:37.898Z,8.4
2019-02-25T01:13:37.649Z,8.5
2019-02-25T01:14:37.650Z,8.2
2019-02-25T01:15:37.631Z,7.8
2019-02-25T01:16:37.722Z,7.6
2019-02-25T01:17:37.667Z,7.5
2019-02-25T01:18:37.651Z,7.7
2019-02-25T01:19:37.624Z,8.3
2019-02-25T01:20:37.730Z,8.6
2019-02-25T01:21:37.729Z,8.6
2019-02-25T01:22:37.640Z,8.1
2019-02-25T01:23:37.634Z,7.8
2019-02-25T01:24:37.641Z,7.6
2019-02-25T01:25:37.761Z,7
2019-02-25T01:26:37.606Z,6.6
2019-02-25T01:27:37.640Z,6.5
2019-02-25T01:28:37.636Z,6.4
2019-02-25T01:29:37.628Z,6.2
2019-02-25T01:30:37.716Z,6
2019-02-25T01:31:37.765Z,5.8
2019-02-25T01:32:37.607Z,5.7
2019-02-25T01:33:37.617Z,5.3
2019-02-25T01:34:37.637Z,5.2
2019-02-25T01:35:37.795Z,5.1
2019-02-25T01:36:37.697Z,4.8
2019-02-25T01:37:37.602Z,4.6
2019-02-25T01:38:37.640Z,4.5
2019-02-25T01:39:37.618Z,4.6
2019-02-25T01:40:37.719Z,4.7
2019-02-25T01:41:37.614Z,5.1
2019-02-25T01:42:37.640Z,5.3
2019-02-25T01:43:37.689Z,5.1
2019-02-25T01:44:37.616Z,4.8
2019-02-25T01:45:37.694Z,4.4
2019-02-25T01:46:37.692Z,4
2019-02-25T01:47:37.628Z,3.8
2019-02-25T01:48:37.678Z,4
2019-02-25T01:49:37.625Z,4
2019-02-25T01:50:37.618Z,4.2
2019-02-25T01:51:37.639Z,4.5
2019-02-25T01:52:37.634Z,4.8
2019-02-25T01:53:37.610Z,4.9
2019-02-25T01:54:37.626Z,5.2
2019-02-25T01:55:37.602Z,5.5
2019-02-25T01:56:37.682Z,5.9
2019-02-25T01:57:37.622Z,6.2
2019-02-25T01:58:37.821Z,7
2019-02-25T01:59:37.601Z,7.5
2019-02-25T02:00:37.635Z,8.2
2019-02-25T02:01:37.618Z,8.4
2019-02-25T02:02:37.624Z,8.6
2019-02-25T02:03:37.694Z,8.8
2019-02-25T02:04:37.597Z,9.4
2019-02-25T02:05:37.605Z,9.9
2019-02-25T02:06:37.623Z,10.5
2019-02-25T02:07:37.614Z,10.9
2019-02-25T02:08:37.618Z,11.4
2019-02-25T02:09:37.683Z,11.9
2019-02-25T02:10:37.586Z,12.2
2019-02-25T02:11:37.615Z,12.5
2019-02-25T02:12:37.615Z,12.8
2019-02-25T02:13:37.613Z,13
2019-02-25T02:14:37.683Z,13
2019-02-25T02:15:37.596Z,12.6
2019-02-25T02:16:37.611Z,12.3
2019-02-25T02:17:37.591Z,12
2019-02-25T02:18:37.585Z,11.4
2019-02-25T02:19:37.687Z,11.2
2019-02-25T02:20:37.617Z,11.4
2019-02-25T02:21:37.600Z,11.5
2019-02-25T02:22:37.612Z,11.5
2019-02-25T02:23:37.612Z,11.6
2019-02-25T02:24:37.671Z,11.4
2019-02-25T02:25:39.075Z,11.4
2019-02-25T02:26:37.598Z,11.4
2019-02-25T02:27:37.614Z,11.4
2019-02-25T02:28:37.609Z,11.4
2019-02-25T02:29:37.665Z,11.2
2019-02-25T02:30:37.748Z,11
2019-02-25T02:31:37.601Z,10.7
2019-02-25T02:32:37.585Z,10.4
2019-02-25T02:33:37.582Z,10.1
2019-02-25T02:34:37.607Z,9.8
2019-02-25T02:35:37.685Z,9.6
2019-02-25T02:36:37.755Z,9.3
2019-02-25T02:37:37.593Z,8.9
2019-02-25T02:38:37.601Z,8.4
2019-02-25T02:39:37.592Z,8
2019-02-25T02:40:37.594Z,7.6
2019-02-25T02:41:37.678Z,7.3
2019-02-25T02:42:37.647Z,6.9
2019-02-25T02:43:37.561Z,6.7
2019-02-25T02:44:37.598Z,6.6
2019-02-25T02:45:37.597Z,6.6
2019-02-25T02:46:37.599Z,6.5
2019-02-25T02:47:37.755Z,6.8
2019-02-25T02:48:37.584Z,6.6
2019-02-25T02:49:37.587Z,6.5
2019-02-25T02:50:37.577Z,6.5
2019-02-25T02:51:37.596Z,6.5
2019-02-25T02:52:37.662Z,6.4
2019-02-25T02:53:37.557Z,6.5
2019-02-25T02:54:37.562Z,6.8
2019-02-25T02:55:37.582Z,7.1
2019-02-25T02:56:37.595Z,7.4
2019-02-25T02:57:37.770Z,7.5
2019-02-25T02:58:37.591Z,7.7
2019-02-25T02:59:37.574Z,7.9
2019-02-25T03:00:37.593Z,8.1
2019-02-25T03:01:37.583Z,8.5
2019-02-25T03:02:37.679Z,8.8
2019-02-25T03:03:37.588Z,9.2
2019-02-25T03:04:37.646Z,9.3
2019-02-25T03:05:37.568Z,9.4
2019-02-25T03:06:37.591Z,9
2019-02-25T03:07:37.655Z,8.6
2019-02-25T03:08:37.572Z,8.5
2019-02-25T03:09:37.582Z,8.3
2019-02-25T03:10:37.551Z,8.1
2019-02-25T03:11:37.577Z,7.6
2019-02-25T03:12:37.651Z,7.5
2019-02-25T03:13:37.651Z,7.4
2019-02-25T03:14:37.566Z,7.2
2019-02-25T03:15:37.567Z,7
2019-02-25T03:16:37.549Z,6.7
2019-02-25T03:17:37.576Z,6.4
2019-02-25T03:18:37.635Z,6.2
2019-02-25T03:19:37.577Z,6.1
2019-02-25T03:20:37.573Z,5.9
2019-02-25T03:21:37.572Z,5.6
2019-02-25T03:22:37.651Z,5.3
2019-02-25T03:23:37.578Z,5
2019-02-25T03:24:37.577Z,4.5
2019-02-25T03:25:37.651Z,4.1
2019-02-25T03:26:37.564Z,3.7
2019-02-25T03:27:39.228Z,3.3
2019-02-25T03:28:37.572Z,3.3
2019-02-25T03:29:37.572Z,3.6
2019-02-25T03:30:37.582Z,3.8
2019-02-25T03:31:37.566Z,4
2019-02-25T03:32:37.647Z,4.2
2019-02-25T03:33:37.576Z,4.2
2019-02-25T03:34:37.631Z,4.1
2019-02-25T03:35:37.554Z,4
2019-02-25T03:36:37.557Z,3.6
2019-02-25T03:37:37.557Z,3.3
2019-02-25T03:38:37.555Z,3
2019-02-25T03:39:37.695Z,2.7
2019-02-25T03:40:37.570Z,2.8
2019-02-25T03:41:37.564Z,2.9
2019-02-25T03:42:37.559Z,3
2019-02-25T03:43:37.550Z,3.4
2019-02-25T03:44:37.680Z,3.7
2019-02-25T03:45:37.562Z,4
2019-02-25T03:46:37.547Z,4.3
2019-02-25T03:47:37.564Z,4.6
2019-02-25T03:48:37.549Z,4.9
2019-02-25T03:49:37.722Z,5.1
2019-02-25T03:50:37.549Z,5.3
2019-02-25T03:51:37.573Z,5.6
2019-02-25T03:52:37.564Z,6
2019-02-25T03:53:37.541Z,6.3
2019-02-25T03:54:37.606Z,6.6
2019-02-25T03:55:37.676Z,6.9
2019-02-25T03:56:37.549Z,7.2
2019-02-25T03:57:37.547Z,7.6
2019-02-25T03:58:37.567Z,7.8
2019-02-25T03:59:37.597Z,7.7
2019-02-25T04:00:37.566Z,7.7
2019-02-25T04:01:37.542Z,7.6
2019-02-25T04:02:37.553Z,7.5
2019-02-25T04:03:37.568Z,7.6
2019-02-25T04:04:37.608Z,7.6
2019-02-25T04:05:37.544Z,7.6
2019-02-25T04:06:37.624Z,7.5
2019-02-25T04:07:37.533Z,7.2
2019-02-25T04:08:37.633Z,7.3
2019-02-25T04:09:37.636Z,7.7
2019-02-25T04:10:37.531Z,8
2019-02-25T04:11:37.614Z,8.4
2019-02-25T04:12:37.561Z,8.8
2019-02-25T04:13:37.554Z,9
2019-02-25T04:14:37.547Z,9.1
2019-02-25T04:15:37.600Z,8.9
2019-02-25T04:16:37.556Z,8.5
2019-02-25T04:17:37.534Z,8.1
2019-02-25T04:18:37.674Z,7.6
2019-02-25T04:19:37.536Z,7.2
2019-02-25T04:20:37.918Z,6.8
2019-02-25T04:21:37.519Z,6.3
2019-02-25T04:22:37.544Z,5.9
2019-02-25T04:23:37.627Z,5.6
2019-02-25T04:24:37.550Z,5.2
2019-02-25T04:25:37.519Z,5.3
2019-02-25T04:26:37.515Z,5.2
2019-02-25T04:27:37.521Z,5.3
2019-02-25T04:28:37.583Z,5.3
2019-02-25T04:29:37.550Z,5.3
2019-02-25T04:30:37.545Z,5.5
2019-02-25T04:31:37.534Z,5.6
2019-02-25T04:32:37.651Z,5.6
2019-02-25T04:33:37.525Z,5.7
2019-02-25T04:34:37.517Z,5.7
2019-02-25T04:35:37.530Z,5.7
2019-02-25T04:36:37.529Z,5.8
2019-02-25T04:37:37.599Z,5.7
2019-02-25T04:38:37.595Z,5.7
2019-02-25T04:39:37.521Z,5.5
2019-02-25T04:40:37.536Z,5.4
2019-02-25T04:41:37.531Z,5.2
2019-02-25T04:42:37.611Z,5.2
2019-02-25T04:43:37.526Z,5
2019-02-25T04:44:37.719Z,4.6
2019-02-25T04:45:37.608Z,4.4
2019-02-25T04:46:37.514Z,4.2
2019-02-25T04:47:37.515Z,4.3
2019-02-25T04:48:37.594Z,4.3
2019-02-25T04:49:37.534Z,4.6
2019-02-25T04:50:37.525Z,4.5
2019-02-25T04:51:37.509Z,4.5
2019-02-25T04:52:37.517Z,4.5
2019-02-25T04:53:37.576Z,4.6
2019-02-25T04:54:37.588Z,4.8
2019-02-25T04:55:37.714Z,4.9
2019-02-25T04:56:37.518Z,5
2019-02-25T04:57:37.520Z,5.2
2019-02-25T04:58:37.525Z,5.6
2019-02-25T04:59:37.572Z,5.7
2019-02-25T05:00:37.601Z,5.6
2019-02-25T05:01:37.527Z,5.4
2019-02-25T05:02:37.522Z,5.1
2019-02-25T05:03:37.509Z,4.6
2019-02-25T05:04:37.574Z,4.2
2019-02-25T05:05:37.491Z,3.9
2019-02-25T05:06:37.501Z,3.8
2019-02-25T05:07:37.575Z,3.9
2019-02-25T05:08:37.651Z,3.9
2019-02-25T05:09:37.507Z,4
2019-02-25T05:10:37.509Z,4.1
2019-02-25T05:11:37.514Z,4.4
2019-02-25T05:12:37.513Z,4.6
2019-02-25T05:13:37.599Z,4.9
2019-02-25T05:14:37.513Z,5.3
2019-02-25T05:15:37.581Z,5.7
2019-02-25T05:16:39.855Z,6.1
2019-02-25T05:17:37.520Z,6.4
2019-02-25T05:18:37.497Z,7
2019-02-25T05:19:37.502Z,7.3
2019-02-25T05:20:37.602Z,7.3
2019-02-25T05:21:37.489Z,7.5
2019-02-25T05:22:37.715Z,7.5
2019-02-25T05:23:37.535Z,7.6
2019-02-25T05:24:38.562Z,7.8
2019-02-25T05:25:37.506Z,7.9
2019-02-25T05:26:37.520Z,7.8
2019-02-25T05:27:37.600Z,7.7
2019-02-25T05:28:37.582Z,7.8
2019-02-25T05:29:37.504Z,7.5
2019-02-25T05:30:37.636Z,7.3
2019-02-25T05:31:37.478Z,7.2
2019-02-25T05:32:37.473Z,7.1
2019-02-25T05:33:37.500Z,7
2019-02-25T05:34:37.559Z,6.8
2019-02-25T05:35:37.596Z,6.3
2019-02-25T05:36:37.669Z,5.8
2019-02-25T05:37:37.467Z,6
2019-02-25T05:38:37.561Z,6.2
2019-02-25T05:39:37.479Z,6.6
2019-02-25T05:40:37.493Z,6.6
2019-02-25T05:41:37.583Z,6.6
2019-02-25T05:42:37.552Z,6.6
2019-02-25T05:43:37.498Z,6.4
2019-02-25T05:44:37.563Z,6.2
2019-02-25T05:45:37.490Z,6
2019-02-25T05:46:37.480Z,6
2019-02-25T05:47:37.500Z,5.9
2019-02-25T05:48:37.460Z,5.6
2019-02-25T05:49:37.573Z,5.7
2019-02-25T05:50:37.476Z,5.9
2019-02-25T05:51:37.496Z,6.4
2019-02-25T05:52:37.487Z,6.8
2019-02-25T05:53:37.485Z,6.7
2019-02-25T05:54:37.580Z,6.5
2019-02-25T05:55:37.488Z,6.5
2019-02-25T05:56:37.478Z,6.8
2019-02-25T05:57:37.492Z,7.6
2019-02-25T05:58:37.494Z,8.4
2019-02-25T05:59:37.604Z,8.9
2019-02-25T06:00:52.588Z,9.5
2019-02-25T06:01:37.483Z,10.1
2019-02-25T06:02:37.469Z,10.3
2019-02-25T06:03:37.484Z,10.5
2019-02-25T06:04:38.925Z,10.7
2019-02-25T06:05:37.550Z,10.9
2019-02-25T06:06:37.458Z,11
2019-02-25T06:07:37.482Z,11.2
2019-02-25T06:08:37.466Z,11.4
2019-02-25T06:09:37.484Z,11.7
2019-02-25T06:10:37.524Z,12.1
2019-02-25T06:11:37.482Z,12.6
2019-02-25T06:12:37.478Z,13.1
2019-02-25T06:13:37.479Z,13.5
2019-02-25T06:14:37.473Z,13.7
2019-02-25T06:15:37.577Z,13.8
2019-02-25T06:16:37.470Z,14.1
2019-02-25T06:17:37.453Z,14.4
2019-02-25T06:18:37.463Z,14.3
2019-02-25T06:19:37.466Z,14.1
2019-02-25T06:20:37.569Z,14.3
2019-02-25T06:21:37.457Z,14.4
2019-02-25T06:22:37.455Z,14.6
2019-02-25T06:23:37.471Z,15
2019-02-25T06:24:37.477Z,15.6
2019-02-25T06:25:37.539Z,16.2
2019-02-25T06:26:38.656Z,16.5
2019-02-25T06:27:37.645Z,16.9
2019-02-25T06:28:37.471Z,17.4
2019-02-25T06:29:37.473Z,17.5
2019-02-25T06:30:37.457Z,17.9
2019-02-25T06:31:37.461Z,18.2
2019-02-25T06:32:37.548Z,18.6
2019-02-25T06:33:37.451Z,18.9
2019-02-25T06:34:37.456Z,19.4
2019-02-25T06:35:37.479Z,19.4
2019-02-25T06:36:37.442Z,19.5
2019-02-25T06:37:37.517Z,19.7
2019-02-25T06:38:37.443Z,19.8
2019-02-25T06:39:37.455Z,19.7
2019-02-25T06:40:37.452Z,19.7
2019-02-25T06:41:37.453Z,19.7
2019-02-25T06:42:37.572Z,19.7
2019-02-25T06:43:37.435Z,19.5
2019-02-25T06:44:37.462Z,19.1
2019-02-25T06:45:37.524Z,18.4
2019-02-25T06:46:37.467Z,17.6
2019-02-25T06:47:37.463Z,16.8
2019-02-25T06:48:37.427Z,16
2019-02-25T06:49:37.464Z,15.5
2019-02-25T06:50:37.535Z,15.3
2019-02-25T06:51:37.458Z,15.2
2019-02-25T06:52:37.441Z,15.5
2019-02-25T06:53:37.522Z,15.7
2019-02-25T06:54:37.448Z,15.8
2019-02-25T06:55:37.449Z,15.8
2019-02-25T06:56:37.448Z,16
2019-02-25T06:57:37.520Z,15.8
2019-02-25T06:58:37.534Z,15.3
2019-02-25T06:59:37.439Z,14.4
2019-02-25T07:00:37.438Z,13.6
2019-02-25T07:01:37.515Z,13.3
2019-02-25T07:02:37.441Z,13.1
2019-02-25T07:03:37.460Z,13.2
2019-02-25T07:04:37.518Z,13.4
2019-02-25T07:05:37.537Z,13.4
2019-02-25T07:06:37.439Z,13.4
2019-02-25T07:07:37.525Z,13.4
2019-02-25T07:08:37.445Z,13.6
2019-02-25T07:09:38.894Z,13.8
2019-02-25T07:10:37.521Z,14
2019-02-25T07:11:37.437Z,14.1
2019-02-25T07:12:37.440Z,14.2
2019-02-25T07:13:37.441Z,14.1
2019-02-25T07:14:37.438Z,14.1
2019-02-25T07:15:37.513Z,14.3
2019-02-25T07:16:37.457Z,14.3
2019-02-25T07:17:37.437Z,14.1
2019-02-25T07:18:37.640Z,13.8
2019-02-25T07:19:37.446Z,13.4
2019-02-25T07:20:37.445Z,13
2019-02-25T07:21:37.492Z,12.4
2019-02-25T07:22:37.429Z,11.8
2019-02-25T07:23:39.277Z,11.1
2019-02-25T07:24:37.452Z,10.2
2019-02-25T07:25:37.451Z,9.6
2019-02-25T07:26:37.519Z,8.7
2019-02-25T07:27:37.580Z,7.9
2019-02-25T07:28:37.434Z,7.1
2019-02-25T07:29:37.531Z,6.5
2019-02-25T07:30:37.457Z,5.8
2019-02-25T07:31:37.509Z,5.3
2019-02-25T07:32:37.439Z,4.8
2019-02-25T07:33:37.448Z,4.3
2019-02-25T07:34:37.450Z,3.9
2019-02-25T07:35:37.440Z,3.5
2019-02-25T07:36:37.521Z,3.2
2019-02-25T07:37:37.431Z,2.9
2019-02-25T07:38:39.559Z,3
2019-02-25T07:39:37.453Z,3.3
2019-02-25T07:40:37.459Z,3.6
2019-02-25T07:41:38.203Z,3.6
2019-02-25T07:42:37.434Z,3.6
2019-02-25T07:43:37.510Z,3.7
2019-02-25T07:44:37.435Z,3.7
2019-02-25T07:45:37.454Z,3.8
2019-02-25T07:46:37.443Z,3.8
2019-02-25T07:47:37.447Z,3.7
2019-02-25T07:48:37.596Z,3.6
2019-02-25T07:49:37.532Z,3.3
2019-02-25T07:50:46.758Z,3
2019-02-25T07:51:37.433Z,2.7
2019-02-25T07:52:37.446Z,2.4
2019-02-25T07:53:37.429Z,2.2
2019-02-25T07:54:37.548Z,2
2019-02-25T07:55:37.445Z,1.8
2019-02-25T07:56:37.434Z,1.6
2019-02-25T07:57:37.436Z,1.5
2019-02-25T07:58:37.507Z,1.3
2019-02-25T07:59:37.412Z,1.2
2019-02-25T08:00:37.438Z,1.1
2019-02-25T08:01:37.427Z,1
2019-02-25T08:02:37.495Z,0.9
2019-02-25T08:03:37.446Z,0.8
2019-02-25T08:04:37.410Z,0.7
2019-02-25T08:05:37.443Z,0.7
2019-02-25T08:06:37.497Z,0.6
2019-02-25T08:07:37.443Z,0.5
2019-02-25T08:08:37.451Z,0.5
2019-02-25T08:09:37.442Z,0.4
2019-02-25T08:10:37.413Z,0.4
2019-02-25T08:11:37.518Z,0.4
2019-02-25T08:12:37.464Z,0.3
2019-02-25T08:13:37.432Z,0.3
2019-02-25T08:14:37.505Z,0.3
2019-02-25T08:15:37.425Z,0.2
2019-02-25T08:16:37.440Z,0.2
2019-02-25T08:17:37.434Z,0.2
2019-02-25T08:18:37.458Z,0.2
2019-02-25T08:19:37.573Z,0.2
2019-02-25T08:20:37.421Z,0.1
2019-02-25T08:21:37.432Z,0.1
2019-02-25T08:22:37.450Z,0.1
2019-02-25T08:23:37.437Z,0.1
2019-02-25T08:24:37.514Z,0.1
2019-02-25T08:25:37.445Z,0.1
2019-02-25T08:26:37.503Z,0.1
2019-02-25T08:27:37.445Z,0.1
2019-02-25T08:28:37.428Z,0.1
2019-02-25T08:29:37.450Z,0.1
2019-02-25T08:30:37.493Z,0.1
2019-02-25T08:31:37.432Z,0.2
2019-02-25T08:32:37.595Z,0.5
2019-02-25T08:33:37.529Z,1.1
2019-02-25T08:34:37.513Z,1.7
2019-02-25T08:35:37.438Z,1.9
2019-02-25T08:36:37.662Z,2.1
2019-02-25T08:37:37.422Z,2.3
2019-02-25T08:38:37.511Z,2.8
2019-02-25T08:39:37.507Z,2.9
2019-02-25T08:40:37.447Z,2.9
2019-02-25T08:41:37.454Z,2.9
2019-02-25T08:42:37.502Z,2.8
2019-02-25T08:43:37.433Z,2.8
2019-02-25T08:44:37.446Z,2.8
2019-02-25T08:45:37.426Z,2.9
2019-02-25T08:46:37.510Z,2.8
2019-02-25T08:47:37.451Z,2.5
2019-02-25T08:48:37.436Z,2.5
2019-02-25T08:49:37.597Z,2.6
2019-02-25T08:50:37.511Z,2.8
2019-02-25T08:51:37.432Z,3.1
2019-02-25T08:52:37.512Z,3.2
2019-02-25T08:53:37.421Z,3.2
2019-02-25T08:54:37.442Z,2.9
2019-02-25T08:55:37.433Z,2.6
2019-02-25T08:56:37.502Z,2.3
2019-02-25T08:57:37.606Z,2.1
2019-02-25T08:58:37.436Z,1.9
2019-02-25T08:59:37.435Z,1.8
2019-02-25T09:00:37.435Z,1.8
2019-02-25T09:01:38.638Z,1.6
2019-02-25T09:02:37.434Z,1.5
2019-02-25T09:03:37.444Z,1.9
2019-02-25T09:04:37.436Z,2.4
2019-02-25T09:05:37.445Z,2.8
2019-02-25T09:06:37.528Z,3.1
2019-02-25T09:07:37.524Z,3.3
2019-02-25T09:08:37.446Z,3.3
2019-02-25T09:09:37.430Z,3.2
2019-02-25T09:10:37.432Z,3.3
2019-02-25T09:11:37.432Z,3.6
2019-02-25T09:12:38.585Z,3.7
2019-02-25T09:13:37.441Z,3.8
2019-02-25T09:14:37.446Z,4
2019-02-25T09:15:37.433Z,4.1
2019-02-25T09:16:37.429Z,4.2
2019-02-25T09:17:37.648Z,4.2
2019-02-25T09:18:37.454Z,4
2019-02-25T09:19:37.433Z,3.7
2019-02-25T09:20:37.428Z,3.8
2019-02-25T09:21:37.421Z,4.2
2019-02-25T09:22:37.524Z,4.4
2019-02-25T09:23:37.443Z,4.7
2019-02-25T09:24:37.530Z,4.9
2019-02-25T09:25:37.448Z,5.2
2019-02-25T09:26:37.429Z,5.3
2019-02-25T09:27:37.448Z,5.6
2019-02-25T09:28:37.643Z,6
2019-02-25T09:29:37.450Z,6.4
2019-02-25T09:30:37.449Z,6.8
2019-02-25T09:31:37.419Z,6.9
2019-02-25T09:32:37.443Z,7
2019-02-25T09:33:37.506Z,7
2019-02-25T09:34:37.448Z,6.9
2019-02-25T09:35:37.435Z,6.9
2019-02-25T09:36:37.612Z,7.2
2019-02-25T09:37:37.427Z,7.5
2019-02-25T09:38:37.443Z,8.1
2019-02-25T09:39:37.529Z,8.2
2019-02-25T09:40:37.438Z,7.8
2019-02-25T09:41:37.445Z,7.3
2019-02-25T09:42:37.423Z,7.1
2019-02-25T09:43:37.432Z,6.6
2019-02-25T09:44:38.047Z,6.4
2019-02-25T09:45:37.439Z,6.2
2019-02-25T09:46:37.449Z,6.4
2019-02-25T09:47:37.601Z,6.7
2019-02-25T09:48:37.441Z,7
2019-02-25T09:49:37.495Z,7.1
2019-02-25T09:50:37.440Z,7.2
2019-02-25T09:51:37.434Z,7.3
2019-02-25T09:52:37.443Z,7.4
2019-02-25T09:53:37.442Z,7.6
2019-02-25T09:54:37.501Z,7.8
2019-02-25T09:55:37.590Z,8.1
2019-02-25T09:56:37.486Z,7.9
2019-02-25T09:57:37.429Z,7.8
2019-02-25T09:58:37.423Z,7.7
2019-02-25T09:59:37.485Z,7.8
2019-02-25T10:00:37.561Z,7.4
2019-02-25T10:01:37.462Z,7.1
2019-02-25T10:02:37.426Z,7.3
2019-02-25T10:03:37.431Z,7.6
2019-02-25T10:04:37.428Z,7.5
2019-02-25T10:05:37.504Z,7
2019-02-25T10:06:37.432Z,7
2019-02-25T10:07:37.448Z,6.9
2019-02-25T10:08:37.500Z,6.9
2019-02-25T10:09:37.440Z,7
2019-02-25T10:10:37.444Z,7.1
2019-02-25T10:11:37.431Z,6.9
2019-02-25T10:12:37.454Z,7.1
2019-02-25T10:13:37.546Z,7.4
2019-02-25T10:14:37.432Z,7.8
2019-02-25T10:15:37.431Z,8
2019-02-25T10:16:37.511Z,7.8
2019-02-25T10:17:37.451Z,7.7
2019-02-25T10:18:38.845Z,7.9
2019-02-25T10:19:37.427Z,7.9
2019-02-25T10:20:37.442Z,8.2
2019-02-25T10:21:37.429Z,8.3
2019-02-25T10:22:37.438Z,8.2
2019-02-25T10:23:37.636Z,8.1
2019-02-25T10:24:37.443Z,8
2019-02-25T10:25:37.441Z,8
2019-02-25T10:26:37.523Z,8.1
2019-02-25T10:27:37.555Z,7.8
2019-02-25T10:28:37.453Z,7.9
2019-02-25T10:29:37.458Z,8.4
2019-02-25T10:30:37.458Z,8.7
2019-02-25T10:31:38.118Z,8.9
2019-02-25T10:32:37.554Z,8.7
2019-02-25T10:33:37.457Z,8.3
2019-02-25T10:34:37.620Z,8.1
2019-02-25T10:35:37.446Z,8.4
2019-02-25T10:36:37.445Z,8.6
2019-02-25T10:37:38.750Z,8.6
2019-02-25T10:38:37.601Z,8.6
2019-02-25T10:39:37.450Z,8.3
2019-02-25T10:40:37.449Z,8.1
2019-02-25T10:41:37.435Z,7.9
2019-02-25T10:42:37.780Z,7.8
2019-02-25T10:43:37.435Z,8.1
2019-02-25T10:44:38.169Z,8.3
2019-02-25T10:45:38.986Z,8
2019-02-25T10:46:38.954Z,7.7
2019-02-25T10:47:37.488Z,7.6
2019-02-25T10:48:37.436Z,7.7
2019-02-25T10:49:37.519Z,7.4
2019-02-25T10:50:38.526Z,7.5
2019-02-25T10:51:39.250Z,7.6
2019-02-25T10:52:38.756Z,7.6
2019-02-25T10:53:37.428Z,7.7
2019-02-25T10:54:37.468Z,7.8
2019-02-25T10:55:37.506Z,8.5
2019-02-25T10:56:37.449Z,8.7
2019-02-25T10:57:37.519Z,8.8
2019-02-25T10:58:37.425Z,9.3
2019-02-25T10:59:39.457Z,9.7
2019-02-25T11:00:39.351Z,9.7
2019-02-25T11:01:39.203Z,9.6
2019-02-25T11:02:43.963Z,10.1
2019-02-25T11:03:37.432Z,9.9
2019-02-25T11:04:37.433Z,10.5
2019-02-25T11:05:37.460Z,10.6
2019-02-25T11:06:37.710Z,10.7
2019-02-25T11:07:39.665Z,11
2019-02-25T11:08:39.270Z,10.9
2019-02-25T11:09:37.495Z,10.7
2019-02-25T11:10:37.456Z,11.3
2019-02-25T11:11:37.513Z,11.4
2019-02-25T11:12:37.453Z,11.6
2019-02-25T11:13:37.459Z,11.6
2019-02-25T11:14:38.886Z,10.8
2019-02-25T11:15:39.253Z,10.5
2019-02-25T11:16:37.437Z,11.5
2019-02-25T11:17:37.439Z,12
2019-02-25T11:18:37.507Z,12.5
2019-02-25T11:19:37.447Z,12.8
2019-02-25T11:20:37.773Z,12.6
2019-02-25T11:21:38.007Z,12.9
2019-02-25T11:22:39.367Z,13.2
2019-02-25T11:23:37.456Z,13.2
2019-02-25T11:24:37.521Z,13.1
2019-02-25T11:25:37.458Z,12.7
2019-02-25T11:26:37.421Z,12.4
2019-02-25T11:27:37.704Z,12.1
2019-02-25T11:28:39.059Z,11.7
2019-02-25T11:29:38.254Z,11.4
2019-02-25T11:30:37.469Z,10.9
2019-02-25T11:31:37.442Z,10.1
2019-02-25T11:32:37.457Z,9.5
2019-02-25T11:33:37.523Z,9.3
2019-02-25T11:34:37.723Z,9.5
2019-02-25T11:35:39.219Z,8.8
2019-02-25T11:36:37.442Z,8.7
2019-02-25T11:37:37.494Z,9.1
2019-02-25T11:38:37.495Z,9.2
2019-02-25T11:39:37.443Z,10
2019-02-25T11:40:38.334Z,10.1
2019-02-25T11:41:39.200Z,10.7
2019-02-25T11:42:37.420Z,10.9
2019-02-25T11:43:37.527Z,10.8
2019-02-25T11:44:37.517Z,10.7
2019-02-25T11:45:37.448Z,11.4
2019-02-25T11:46:37.446Z,11.8
2019-02-25T11:47:37.444Z,12.4
2019-02-25T11:48:37.510Z,12.9
2019-02-25T11:49:37.461Z,12.9
2019-02-25T11:50:37.537Z,13.3
2019-02-25T11:51:37.454Z,13.7
2019-02-25T11:52:37.445Z,14
2019-02-25T11:53:37.446Z,13.6
2019-02-25T11:54:37.464Z,13.4
2019-02-25T11:55:37.529Z,13.9
2019-02-25T11:56:37.459Z,13.9
2019-02-25T11:57:37.441Z,14.1
2019-02-25T11:58:37.502Z,14.6
2019-02-25T11:59:37.432Z,15.1
2019-02-25T12:00:37.462Z,14.6
2019-02-25T12:01:37.524Z,14.3
2019-02-25T12:02:37.453Z,13.7
2019-02-25T12:03:37.447Z,13.2
2019-02-25T12:04:37.506Z,12.5
2019-02-25T12:05:37.504Z,11.9
2019-02-25T12:06:37.459Z,12.6
2019-02-25T12:07:37.451Z,12.8
2019-02-25T12:08:37.443Z,12.8
2019-02-25T12:09:37.494Z,13
2019-02-25T12:10:37.442Z,12.8
2019-02-25T12:11:37.502Z,12.6
2019-02-25T12:12:37.433Z,12.5
2019-02-25T12:13:37.457Z,12.4
2019-02-25T12:14:37.592Z,12.2
2019-02-25T12:15:37.426Z,11.9
2019-02-25T12:16:37.436Z,11.7
2019-02-25T12:17:37.444Z,12.3
2019-02-25T12:18:37.452Z,12.6
2019-02-25T12:19:37.517Z,13.1
2019-02-25T12:20:37.498Z,13.5
2019-02-25T12:21:37.429Z,13.4
2019-02-25T12:22:37.461Z,13.6
2019-02-25T12:23:37.462Z,13.1
2019-02-25T12:24:37.528Z,13.2
2019-02-25T12:25:37.503Z,13.3
2019-02-25T12:26:37.420Z,13.1
2019-02-25T12:27:37.501Z,13.2
2019-02-25T12:28:37.461Z,13
2019-02-25T12:29:37.501Z,12.6
2019-02-25T12:30:37.447Z,11.8
2019-02-25T12:31:37.505Z,12.2
2019-02-25T12:32:37.448Z,12.7
2019-02-25T12:33:37.516Z,12.4
2019-02-25T12:34:37.468Z,12.4
2019-02-25T12:35:37.509Z,12.2
2019-02-25T12:36:37.598Z,11.6
2019-02-25T12:37:37.460Z,11.8
2019-02-25T12:38:38.497Z,11.9
2019-02-25T12:39:37.702Z,11.9
2019-02-25T12:40:37.825Z,11.5
2019-02-25T12:41:37.909Z,10.7
2019-02-25T12:42:37.481Z,10.3
2019-02-25T12:43:37.661Z,10
2019-02-25T12:44:39.647Z,9.9
2019-02-25T12:45:37.551Z,10.5
2019-02-25T12:46:37.516Z,10.7
2019-02-25T12:47:37.501Z,10.9
2019-02-25T12:48:37.575Z,11.4
2019-02-25T12:49:37.496Z,11.1
2019-02-25T12:50:37.606Z,10.9
2019-02-25T12:51:37.457Z,10.7
2019-02-25T12:52:37.497Z,10.6
2019-02-25T12:53:37.897Z,10.3
2019-02-25T12:54:37.624Z,10.2
2019-02-25T12:55:37.543Z,9.9
2019-02-25T12:56:37.518Z,10
2019-02-25T12:57:37.522Z,9.3
2019-02-25T12:58:37.597Z,10
2019-02-25T12:59:37.643Z,10.1
2019-02-25T13:00:37.514Z,9.6
2019-02-25T13:01:37.540Z,8.7
2019-02-25T13:02:37.565Z,8.4
2019-02-25T13:03:38.610Z,8.2
2019-02-25T13:04:39.651Z,7.9
2019-02-25T13:05:37.542Z,7.4
2019-02-25T13:06:39.036Z,7.9
2019-02-25T13:07:37.732Z,8
2019-02-25T13:08:37.513Z,7.8
2019-02-25T13:09:37.602Z,8.1
2019-02-25T13:10:37.500Z,7.9
2019-02-25T13:11:37.446Z,7.3
2019-02-25T13:12:37.524Z,7.1
2019-02-25T13:13:37.525Z,6.4
2019-02-25T13:14:37.523Z,5.9
2019-02-25T13:15:37.479Z,6.2
2019-02-25T13:16:37.517Z,6.4
2019-02-25T13:17:37.483Z,6.9
2019-02-25T13:18:37.647Z,7.4
2019-02-25T13:19:37.549Z,7.2
2019-02-25T13:20:37.628Z,6.7
2019-02-25T13:21:37.533Z,6.1
2019-02-25T13:22:37.522Z,6.3
2019-02-25T13:23:37.494Z,6.1
2019-02-25T13:24:39.340Z,5.7
2019-02-25T13:25:38.372Z,5.7
2019-02-25T13:26:37.499Z,5.8
2019-02-25T13:27:37.516Z,5.7
2019-02-25T13:28:37.485Z,5.8
2019-02-25T13:29:37.550Z,5.8
2019-02-25T13:30:37.592Z,5.8
2019-02-25T13:31:37.514Z,5.6
2019-02-25T13:32:37.453Z,5.4
2019-02-25T13:33:37.458Z,5.3
2019-02-25T13:34:37.504Z,4.8
2019-02-25T13:35:37.444Z,4.5
2019-02-25T13:36:37.431Z,4.3
2019-02-25T13:37:37.432Z,4.2
2019-02-25T13:38:37.459Z,4.3
2019-02-25T13:39:37.530Z,4.7
2019-02-25T13:40:37.445Z,5
2019-02-25T13:41:37.461Z,5.5
2019-02-25T13:42:37.451Z,5.7
2019-02-25T13:43:37.440Z,5.6